sensor_id;sensor_type;location;lat;lon;timestamp;temperature;humidity
53748;DHT22;39655;53.210;5.768;2022-08-06T00:01:52;14.20;74.70
53748;DHT22;39655;53.210;5.768;2022-08-06T00:04:18;14.20;74.90
53748;DHT22;39655;53.210;5.768;2022-08-06T00:06:44;14.20;75.00
53748;DHT22;39655;53.210;5.768;2022-08-06T00:09:10;14.10;75.00
53748;DHT22;39655;53.210;5.768;2022-08-06T00:11:37;14.10;75.30
53748;DHT22;39655;53.210;5.768;2022-08-06T00:14:03;14.10;75.70
53748;DHT22;39655;53.210;5.768;2022-08-06T00:16:29;14.10;75.70
53748;DHT22;39655;53.210;5.768;2022-08-06T00:18:55;14.10;75.60
53748;DHT22;39655;53.210;5.768;2022-08-06T00:21:21;14.10;75.50
53748;DHT22;39655;53.210;5.768;2022-08-06T00:23:47;14.10;75.80
53748;DHT22;39655;53.210;5.768;2022-08-06T00:26:12;14.10;75.80
53748;DHT22;39655;53.210;5.768;2022-08-06T00:28:38;14.10;75.80
53748;DHT22;39655;53.210;5.768;2022-08-06T00:31:04;14.00;76.00
53748;DHT22;39655;53.210;5.768;2022-08-06T00:33:30;14.00;76.70
53748;DHT22;39655;53.210;5.768;2022-08-06T00:35:56;14.00;76.60
53748;DHT22;39655;53.210;5.768;2022-08-06T00:38:22;14.00;76.70
53748;DHT22;39655;53.210;5.768;2022-08-06T00:40:52;14.00;76.70
53748;DHT22;39655;53.210;5.768;2022-08-06T00:43:18;13.90;76.70
53748;DHT22;39655;53.210;5.768;2022-08-06T00:45:43;13.90;76.80
53748;DHT22;39655;53.210;5.768;2022-08-06T00:48:09;13.90;76.80
53748;DHT22;39655;53.210;5.768;2022-08-06T00:50:35;13.80;76.90
53748;DHT22;39655;53.210;5.768;2022-08-06T00:53:01;13.80;77.00
53748;DHT22;39655;53.210;5.768;2022-08-06T00:55:27;13.80;77.70
53748;DHT22;39655;53.210;5.768;2022-08-06T00:57:53;13.80;77.90
53748;DHT22;39655;53.210;5.768;2022-08-06T01:00:19;13.70;78.00
53748;DHT22;39655;53.210;5.768;2022-08-06T01:02:44;13.70;77.80
53748;DHT22;39655;53.210;5.768;2022-08-06T01:05:10;13.70;78.00
53748;DHT22;39655;53.210;5.768;2022-08-06T01:07:36;13.70;78.10
53748;DHT22;39655;53.210;5.768;2022-08-06T01:10:02;13.70;78.00
53748;DHT22;39655;53.210;5.768;2022-08-06T01:12:28;13.70;78.00
53748;DHT22;39655;53.210;5.768;2022-08-06T01:14:55;13.60;78.30
53748;DHT22;39655;53.210;5.768;2022-08-06T01:17:28;13.60;78.70
53748;DHT22;39655;53.210;5.768;2022-08-06T01:22:45;13.50;79.10
53748;DHT22;39655;53.210;5.768;2022-08-06T01:28:42;13.50;79.90
53748;DHT22;39655;53.210;5.768;2022-08-06T01:31:15;13.40;80.20
53748;DHT22;39655;53.210;5.768;2022-08-06T01:33:54;13.40;80.20
53748;DHT22;39655;53.210;5.768;2022-08-06T01:36:37;13.40;80.30
53748;DHT22;39655;53.210;5.768;2022-08-06T01:39:04;13.30;80.20
53748;DHT22;39655;53.210;5.768;2022-08-06T01:41:40;13.30;80.40
53748;DHT22;39655;53.210;5.768;2022-08-06T01:44:17;13.30;80.70
53748;DHT22;39655;53.210;5.768;2022-08-06T01:46:47;13.30;80.70
53748;DHT22;39655;53.210;5.768;2022-08-06T01:49:19;13.30;80.70
53748;DHT22;39655;53.210;5.768;2022-08-06T01:51:45;13.30;80.50
53748;DHT22;39655;53.210;5.768;2022-08-06T01:54:14;13.20;80.60
53748;DHT22;39655;53.210;5.768;2022-08-06T01:56:41;13.20;80.70
53748;DHT22;39655;53.210;5.768;2022-08-06T01:59:10;13.20;80.90
53748;DHT22;39655;53.210;5.768;2022-08-06T02:01:38;13.20;80.90
53748;DHT22;39655;53.210;5.768;2022-08-06T02:04:05;13.10;81.10
53748;DHT22;39655;53.210;5.768;2022-08-06T02:06:40;13.20;81.20
53748;DHT22;39655;53.210;5.768;2022-08-06T02:09:14;13.10;81.30
53748;DHT22;39655;53.210;5.768;2022-08-06T02:11:43;13.10;81.20
53748;DHT22;39655;53.210;5.768;2022-08-06T02:14:13;13.10;81.20
53748;DHT22;39655;53.210;5.768;2022-08-06T02:16:41;13.10;81.30
53748;DHT22;39655;53.210;5.768;2022-08-06T02:19:11;13.10;81.20
53748;DHT22;39655;53.210;5.768;2022-08-06T02:21:41;13.10;81.30
53748;DHT22;39655;53.210;5.768;2022-08-06T02:24:08;13.10;81.40
53748;DHT22;39655;53.210;5.768;2022-08-06T02:26:37;13.00;81.60
53748;DHT22;39655;53.210;5.768;2022-08-06T02:29:06;13.00;81.70
53748;DHT22;39655;53.210;5.768;2022-08-06T02:31:33;13.00;81.70
53748;DHT22;39655;53.210;5.768;2022-08-06T02:33:59;13.00;81.70
53748;DHT22;39655;53.210;5.768;2022-08-06T02:36:32;13.00;81.70
53748;DHT22;39655;53.210;5.768;2022-08-06T02:39:03;12.90;82.10
53748;DHT22;39655;53.210;5.768;2022-08-06T02:41:37;13.00;82.50
53748;DHT22;39655;53.210;5.768;2022-08-06T02:44:15;13.00;82.60
53748;DHT22;39655;53.210;5.768;2022-08-06T02:47:08;12.90;82.70
53748;DHT22;39655;53.210;5.768;2022-08-06T02:49:38;13.00;83.50
53748;DHT22;39655;53.210;5.768;2022-08-06T02:52:11;13.00;83.30
53748;DHT22;39655;53.210;5.768;2022-08-06T02:54:41;13.00;83.50
53748;DHT22;39655;53.210;5.768;2022-08-06T02:57:14;13.00;83.30
53748;DHT22;39655;53.210;5.768;2022-08-06T02:59:45;13.00;83.40
53748;DHT22;39655;53.210;5.768;2022-08-06T03:02:12;13.10;83.20
53748;DHT22;39655;53.210;5.768;2022-08-06T03:04:45;13.10;83.30
53748;DHT22;39655;53.210;5.768;2022-08-06T03:07:12;13.10;83.60
53748;DHT22;39655;53.210;5.768;2022-08-06T03:09:42;13.10;83.90
53748;DHT22;39655;53.210;5.768;2022-08-06T03:12:10;13.10;84.00
53748;DHT22;39655;53.210;5.768;2022-08-06T03:14:38;13.10;84.10
53748;DHT22;39655;53.210;5.768;2022-08-06T03:17:06;13.10;84.00
53748;DHT22;39655;53.210;5.768;2022-08-06T03:19:33;13.10;84.10
53748;DHT22;39655;53.210;5.768;2022-08-06T03:22:01;13.10;84.00
53748;DHT22;39655;53.210;5.768;2022-08-06T03:24:28;13.10;83.90
53748;DHT22;39655;53.210;5.768;2022-08-06T03:26:58;13.10;83.90
53748;DHT22;39655;53.210;5.768;2022-08-06T03:29:25;13.10;84.00
53748;DHT22;39655;53.210;5.768;2022-08-06T03:31:52;13.10;84.00
53748;DHT22;39655;53.210;5.768;2022-08-06T03:34:18;13.00;84.10
53748;DHT22;39655;53.210;5.768;2022-08-06T03:36:44;13.00;84.60
53748;DHT22;39655;53.210;5.768;2022-08-06T03:39:11;13.10;85.10
53748;DHT22;39655;53.210;5.768;2022-08-06T03:41:39;13.10;85.40
53748;DHT22;39655;53.210;5.768;2022-08-06T03:44:06;13.10;85.70
53748;DHT22;39655;53.210;5.768;2022-08-06T03:46:46;13.10;85.80
53748;DHT22;39655;53.210;5.768;2022-08-06T03:49:25;13.10;85.70
53748;DHT22;39655;53.210;5.768;2022-08-06T03:51:53;13.10;85.30
53748;DHT22;39655;53.210;5.768;2022-08-06T03:54:25;13.10;85.00
53748;DHT22;39655;53.210;5.768;2022-08-06T03:56:52;13.10;85.00
53748;DHT22;39655;53.210;5.768;2022-08-06T03:59:20;13.10;85.20
53748;DHT22;39655;53.210;5.768;2022-08-06T04:01:47;13.10;85.20
53748;DHT22;39655;53.210;5.768;2022-08-06T04:04:15;13.00;85.10
53748;DHT22;39655;53.210;5.768;2022-08-06T04:06:42;13.00;85.10
53748;DHT22;39655;53.210;5.768;2022-08-06T04:09:09;13.00;85.20
53748;DHT22;39655;53.210;5.768;2022-08-06T04:11:35;13.00;85.00
53748;DHT22;39655;53.210;5.768;2022-08-06T04:14:02;12.90;85.00
53748;DHT22;39655;53.210;5.768;2022-08-06T04:16:28;12.90;84.90
53748;DHT22;39655;53.210;5.768;2022-08-06T04:18:57;12.90;84.90
53748;DHT22;39655;53.210;5.768;2022-08-06T04:21:24;12.90;84.90
53748;DHT22;39655;53.210;5.768;2022-08-06T04:23:51;12.90;84.90
53748;DHT22;39655;53.210;5.768;2022-08-06T04:26:19;12.90;84.90
53748;DHT22;39655;53.210;5.768;2022-08-06T04:28:48;12.90;85.00
53748;DHT22;39655;53.210;5.768;2022-08-06T04:31:15;12.90;85.00
53748;DHT22;39655;53.210;5.768;2022-08-06T04:33:44;12.90;85.20
53748;DHT22;39655;53.210;5.768;2022-08-06T04:36:11;13.00;85.30
53748;DHT22;39655;53.210;5.768;2022-08-06T04:38:38;13.10;85.50
53748;DHT22;39655;53.210;5.768;2022-08-06T04:41:05;13.10;85.50
53748;DHT22;39655;53.210;5.768;2022-08-06T04:43:31;13.10;85.40
53748;DHT22;39655;53.210;5.768;2022-08-06T04:45:57;13.20;85.20
53748;DHT22;39655;53.210;5.768;2022-08-06T04:48:23;13.20;84.90
53748;DHT22;39655;53.210;5.768;2022-08-06T04:50:49;13.20;84.50
53748;DHT22;39655;53.210;5.768;2022-08-06T04:53:17;13.30;84.20
53748;DHT22;39655;53.210;5.768;2022-08-06T04:55:44;13.30;84.10
53748;DHT22;39655;53.210;5.768;2022-08-06T04:58:13;13.30;84.10
53748;DHT22;39655;53.210;5.768;2022-08-06T05:00:44;13.40;84.10
53748;DHT22;39655;53.210;5.768;2022-08-06T05:03:10;13.40;84.10
53748;DHT22;39655;53.210;5.768;2022-08-06T05:05:42;13.50;84.20
53748;DHT22;39655;53.210;5.768;2022-08-06T05:08:09;13.50;84.10
53748;DHT22;39655;53.210;5.768;2022-08-06T05:10:47;13.60;84.50
53748;DHT22;39655;53.210;5.768;2022-08-06T05:13:14;13.60;84.50
53748;DHT22;39655;53.210;5.768;2022-08-06T05:15:44;13.70;84.60
53748;DHT22;39655;53.210;5.768;2022-08-06T05:18:15;13.70;84.80
53748;DHT22;39655;53.210;5.768;2022-08-06T05:20:47;13.70;84.70
53748;DHT22;39655;53.210;5.768;2022-08-06T05:23:20;13.70;84.50
53748;DHT22;39655;53.210;5.768;2022-08-06T05:25:48;13.70;84.60
53748;DHT22;39655;53.210;5.768;2022-08-06T05:28:14;13.80;84.40
53748;DHT22;39655;53.210;5.768;2022-08-06T05:30:46;13.90;84.30
53748;DHT22;39655;53.210;5.768;2022-08-06T05:33:21;14.00;83.90
53748;DHT22;39655;53.210;5.768;2022-08-06T05:35:47;14.10;83.80
53748;DHT22;39655;53.210;5.768;2022-08-06T05:38:12;14.10;83.50
53748;DHT22;39655;53.210;5.768;2022-08-06T05:40:39;14.20;83.50
53748;DHT22;39655;53.210;5.768;2022-08-06T05:43:05;14.30;83.10
53748;DHT22;39655;53.210;5.768;2022-08-06T05:45:31;14.40;82.50
53748;DHT22;39655;53.210;5.768;2022-08-06T05:48:00;14.50;81.90
53748;DHT22;39655;53.210;5.768;2022-08-06T05:50:29;14.70;81.10
53748;DHT22;39655;53.210;5.768;2022-08-06T05:53:04;14.80;81.00
53748;DHT22;39655;53.210;5.768;2022-08-06T05:58:18;15.00;81.20
53748;DHT22;39655;53.210;5.768;2022-08-06T06:00:44;15.10;81.30
53748;DHT22;39655;53.210;5.768;2022-08-06T06:03:15;15.20;81.20
53748;DHT22;39655;53.210;5.768;2022-08-06T06:05:42;15.30;80.80
53748;DHT22;39655;53.210;5.768;2022-08-06T06:08:09;15.40;79.10
53748;DHT22;39655;53.210;5.768;2022-08-06T06:10:36;15.50;78.70
53748;DHT22;39655;53.210;5.768;2022-08-06T06:13:03;15.60;78.60
53748;DHT22;39655;53.210;5.768;2022-08-06T06:15:32;15.60;78.60
53748;DHT22;39655;53.210;5.768;2022-08-06T06:29:57;15.50;80.80
53748;DHT22;39655;53.210;5.768;2022-08-06T06:35:20;15.50;81.20
53748;DHT22;39655;53.210;5.768;2022-08-06T06:40:43;15.60;80.20
53748;DHT22;39655;53.210;5.768;2022-08-06T06:43:23;15.60;80.40
53748;DHT22;39655;53.210;5.768;2022-08-06T06:46:03;15.60;80.40
53748;DHT22;39655;53.210;5.768;2022-08-06T06:51:10;15.70;77.60
53748;DHT22;39655;53.210;5.768;2022-08-06T06:53:44;15.80;77.30
53748;DHT22;39655;53.210;5.768;2022-08-06T06:56:13;15.80;77.80
53748;DHT22;39655;53.210;5.768;2022-08-06T06:58:53;15.90;76.00
53748;DHT22;39655;53.210;5.768;2022-08-06T07:01:21;16.00;75.10
53748;DHT22;39655;53.210;5.768;2022-08-06T07:03:49;16.10;74.70
53748;DHT22;39655;53.210;5.768;2022-08-06T07:06:18;16.20;75.10
53748;DHT22;39655;53.210;5.768;2022-08-06T07:08:49;16.30;75.00
53748;DHT22;39655;53.210;5.768;2022-08-06T07:11:19;16.40;73.50
53748;DHT22;39655;53.210;5.768;2022-08-06T07:13:47;16.50;72.10
53748;DHT22;39655;53.210;5.768;2022-08-06T07:16:17;16.60;72.10
53748;DHT22;39655;53.210;5.768;2022-08-06T07:18:44;16.60;72.80
53748;DHT22;39655;53.210;5.768;2022-08-06T07:21:13;16.80;73.00
53748;DHT22;39655;53.210;5.768;2022-08-06T07:23:45;16.90;72.20
53748;DHT22;39655;53.210;5.768;2022-08-06T07:26:13;17.10;71.80
53748;DHT22;39655;53.210;5.768;2022-08-06T07:28:40;17.20;70.40
53748;DHT22;39655;53.210;5.768;2022-08-06T07:31:07;17.20;69.60
53748;DHT22;39655;53.210;5.768;2022-08-06T07:33:38;17.20;69.90
53748;DHT22;39655;53.210;5.768;2022-08-06T07:36:04;17.10;69.80
53748;DHT22;39655;53.210;5.768;2022-08-06T07:38:33;17.20;70.40
53748;DHT22;39655;53.210;5.768;2022-08-06T07:41:02;17.20;70.20
53748;DHT22;39655;53.210;5.768;2022-08-06T07:43:46;17.30;69.70
53748;DHT22;39655;53.210;5.768;2022-08-06T07:46:16;17.40;70.20
53748;DHT22;39655;53.210;5.768;2022-08-06T07:48:57;17.60;69.10
53748;DHT22;39655;53.210;5.768;2022-08-06T07:51:29;17.70;68.90
53748;DHT22;39655;53.210;5.768;2022-08-06T07:53:56;17.80;69.10
53748;DHT22;39655;53.210;5.768;2022-08-06T07:56:22;17.80;67.80
53748;DHT22;39655;53.210;5.768;2022-08-06T07:59:08;17.80;66.30
53748;DHT22;39655;53.210;5.768;2022-08-06T08:09:19;17.90;64.30
53748;DHT22;39655;53.210;5.768;2022-08-06T08:11:50;17.90;63.70
53748;DHT22;39655;53.210;5.768;2022-08-06T08:14:19;18.00;64.80
53748;DHT22;39655;53.210;5.768;2022-08-06T08:16:45;18.00;63.30
53748;DHT22;39655;53.210;5.768;2022-08-06T08:19:29;17.90;62.60
53748;DHT22;39655;53.210;5.768;2022-08-06T08:21:59;17.80;62.20
53748;DHT22;39655;53.210;5.768;2022-08-06T08:24:27;18.00;62.50
53748;DHT22;39655;53.210;5.768;2022-08-06T08:27:01;18.10;60.60
53748;DHT22;39655;53.210;5.768;2022-08-06T08:29:29;18.20;62.40
53748;DHT22;39655;53.210;5.768;2022-08-06T08:31:55;18.40;60.50
53748;DHT22;39655;53.210;5.768;2022-08-06T08:34:23;18.40;59.50
53748;DHT22;39655;53.210;5.768;2022-08-06T08:36:55;18.50;61.10
53748;DHT22;39655;53.210;5.768;2022-08-06T08:39:24;18.50;60.70
53748;DHT22;39655;53.210;5.768;2022-08-06T08:41:54;18.40;60.30
53748;DHT22;39655;53.210;5.768;2022-08-06T08:47:28;18.50;61.60
53748;DHT22;39655;53.210;5.768;2022-08-06T08:50:01;18.70;60.70
53748;DHT22;39655;53.210;5.768;2022-08-06T08:52:34;18.70;58.10
53748;DHT22;39655;53.210;5.768;2022-08-06T08:55:05;18.60;59.30
53748;DHT22;39655;53.210;5.768;2022-08-06T08:57:32;18.50;59.30
53748;DHT22;39655;53.210;5.768;2022-08-06T09:00:01;18.50;59.90
53748;DHT22;39655;53.210;5.768;2022-08-06T09:02:27;18.60;60.20
53748;DHT22;39655;53.210;5.768;2022-08-06T09:04:53;18.60;59.90
53748;DHT22;39655;53.210;5.768;2022-08-06T09:07:20;18.60;58.50
53748;DHT22;39655;53.210;5.768;2022-08-06T09:09:45;18.70;59.80
53748;DHT22;39655;53.210;5.768;2022-08-06T09:12:11;18.90;60.10
53748;DHT22;39655;53.210;5.768;2022-08-06T09:14:37;19.10;59.10
53748;DHT22;39655;53.210;5.768;2022-08-06T09:17:06;19.00;60.00
53748;DHT22;39655;53.210;5.768;2022-08-06T09:19:33;19.00;58.00
53748;DHT22;39655;53.210;5.768;2022-08-06T09:21:59;18.90;58.00
53748;DHT22;39655;53.210;5.768;2022-08-06T09:24:26;19.00;58.40
53748;DHT22;39655;53.210;5.768;2022-08-06T09:27:21;19.00;58.60
53748;DHT22;39655;53.210;5.768;2022-08-06T09:29:57;19.00;58.10
53748;DHT22;39655;53.210;5.768;2022-08-06T09:32:37;18.90;59.20
53748;DHT22;39655;53.210;5.768;2022-08-06T09:35:27;18.80;59.80
53748;DHT22;39655;53.210;5.768;2022-08-06T09:38:04;18.70;59.60
53748;DHT22;39655;53.210;5.768;2022-08-06T09:40:30;18.70;59.70
53748;DHT22;39655;53.210;5.768;2022-08-06T09:42:56;18.80;60.00
53748;DHT22;39655;53.210;5.768;2022-08-06T09:45:24;18.70;60.70
53748;DHT22;39655;53.210;5.768;2022-08-06T09:48:07;18.70;59.90
53748;DHT22;39655;53.210;5.768;2022-08-06T09:50:43;18.70;58.80
53748;DHT22;39655;53.210;5.768;2022-08-06T09:53:09;18.80;58.90
53748;DHT22;39655;53.210;5.768;2022-08-06T09:55:35;18.90;58.60
53748;DHT22;39655;53.210;5.768;2022-08-06T09:58:03;19.00;58.30
53748;DHT22;39655;53.210;5.768;2022-08-06T10:00:33;18.90;59.00
53748;DHT22;39655;53.210;5.768;2022-08-06T10:03:00;18.70;58.40
53748;DHT22;39655;53.210;5.768;2022-08-06T10:05:26;18.80;60.90
53748;DHT22;39655;53.210;5.768;2022-08-06T10:08:09;18.90;59.30
53748;DHT22;39655;53.210;5.768;2022-08-06T10:10:40;18.90;57.50
53748;DHT22;39655;53.210;5.768;2022-08-06T10:13:25;18.90;58.10
53748;DHT22;39655;53.210;5.768;2022-08-06T10:15:54;18.90;58.30
53748;DHT22;39655;53.210;5.768;2022-08-06T10:18:29;19.00;58.80
53748;DHT22;39655;53.210;5.768;2022-08-06T10:21:05;19.10;57.00
53748;DHT22;39655;53.210;5.768;2022-08-06T10:23:32;19.10;58.70
53748;DHT22;39655;53.210;5.768;2022-08-06T10:26:00;19.30;57.80
53748;DHT22;39655;53.210;5.768;2022-08-06T10:28:27;19.40;58.70
53748;DHT22;39655;53.210;5.768;2022-08-06T10:30:54;19.40;57.00
53748;DHT22;39655;53.210;5.768;2022-08-06T10:33:23;19.50;56.50
53748;DHT22;39655;53.210;5.768;2022-08-06T10:35:54;19.60;56.90
53748;DHT22;39655;53.210;5.768;2022-08-06T10:38:25;19.70;57.20
53748;DHT22;39655;53.210;5.768;2022-08-06T10:40:52;19.60;56.40
53748;DHT22;39655;53.210;5.768;2022-08-06T10:43:18;19.30;56.30
53748;DHT22;39655;53.210;5.768;2022-08-06T10:45:52;19.40;57.20
53748;DHT22;39655;53.210;5.768;2022-08-06T10:48:24;19.50;54.50
53748;DHT22;39655;53.210;5.768;2022-08-06T10:50:52;19.60;54.30
53748;DHT22;39655;53.210;5.768;2022-08-06T10:53:25;19.70;55.30
53748;DHT22;39655;53.210;5.768;2022-08-06T10:55:59;19.80;54.90
53748;DHT22;39655;53.210;5.768;2022-08-06T10:58:31;19.90;54.60
53748;DHT22;39655;53.210;5.768;2022-08-06T11:01:07;20.00;53.20
53748;DHT22;39655;53.210;5.768;2022-08-06T11:03:58;20.10;52.90
53748;DHT22;39655;53.210;5.768;2022-08-06T11:06:56;20.10;53.80
53748;DHT22;39655;53.210;5.768;2022-08-06T11:15:32;20.70;51.90
53748;DHT22;39655;53.210;5.768;2022-08-06T11:18:05;20.60;51.60
53748;DHT22;39655;53.210;5.768;2022-08-06T11:20:41;20.80;51.60
53748;DHT22;39655;53.210;5.768;2022-08-06T11:25:48;20.80;51.40
53748;DHT22;39655;53.210;5.768;2022-08-06T11:31:07;20.20;53.00
53748;DHT22;39655;53.210;5.768;2022-08-06T11:36:09;20.40;52.80
53748;DHT22;39655;53.210;5.768;2022-08-06T11:46:28;20.20;52.80
53748;DHT22;39655;53.210;5.768;2022-08-06T11:54:19;21.30;49.80
53748;DHT22;39655;53.210;5.768;2022-08-06T12:04:59;21.10;48.80
53748;DHT22;39655;53.210;5.768;2022-08-06T12:12:40;21.70;48.60
53748;DHT22;39655;53.210;5.768;2022-08-06T12:17:39;21.30;51.30
53748;DHT22;39655;53.210;5.768;2022-08-06T12:20:06;21.40;52.50
53748;DHT22;39655;53.210;5.768;2022-08-06T12:22:34;21.50;50.40
53748;DHT22;39655;53.210;5.768;2022-08-06T12:25:04;21.40;50.10
53748;DHT22;39655;53.210;5.768;2022-08-06T12:27:35;21.30;50.80
53748;DHT22;39655;53.210;5.768;2022-08-06T12:30:04;21.10;51.70
53748;DHT22;39655;53.210;5.768;2022-08-06T12:32:34;20.70;52.70
53748;DHT22;39655;53.210;5.768;2022-08-06T12:35:09;20.50;53.00
53748;DHT22;39655;53.210;5.768;2022-08-06T12:37:38;20.80;52.60
53748;DHT22;39655;53.210;5.768;2022-08-06T12:40:23;21.10;49.30
53748;DHT22;39655;53.210;5.768;2022-08-06T12:42:50;21.60;50.00
53748;DHT22;39655;53.210;5.768;2022-08-06T12:45:26;22.00;49.40
53748;DHT22;39655;53.210;5.768;2022-08-06T12:48:10;22.20;48.60
53748;DHT22;39655;53.210;5.768;2022-08-06T12:50:41;22.00;46.90
53748;DHT22;39655;53.210;5.768;2022-08-06T12:53:12;21.80;48.10
53748;DHT22;39655;53.210;5.768;2022-08-06T12:55:52;21.80;47.40
53748;DHT22;39655;53.210;5.768;2022-08-06T12:58:20;21.90;48.10
53748;DHT22;39655;53.210;5.768;2022-08-06T13:00:53;22.10;49.20
53748;DHT22;39655;53.210;5.768;2022-08-06T13:03:21;22.40;50.20
53748;DHT22;39655;53.210;5.768;2022-08-06T13:05:47;22.50;48.10
53748;DHT22;39655;53.210;5.768;2022-08-06T13:08:13;22.10;48.20
53748;DHT22;39655;53.210;5.768;2022-08-06T13:10:40;21.80;48.20
53748;DHT22;39655;53.210;5.768;2022-08-06T13:13:12;22.10;48.40
53748;DHT22;39655;53.210;5.768;2022-08-06T13:15:38;22.50;47.60
53748;DHT22;39655;53.210;5.768;2022-08-06T13:18:12;22.80;47.50
53748;DHT22;39655;53.210;5.768;2022-08-06T13:20:40;22.90;47.30
53748;DHT22;39655;53.210;5.768;2022-08-06T13:23:09;23.30;47.20
53748;DHT22;39655;53.210;5.768;2022-08-06T13:28:15;23.10;45.60
53748;DHT22;39655;53.210;5.768;2022-08-06T13:30:45;22.80;47.20
53748;DHT22;39655;53.210;5.768;2022-08-06T13:33:22;22.80;44.80
53748;DHT22;39655;53.210;5.768;2022-08-06T13:35:51;22.90;44.90
53748;DHT22;39655;53.210;5.768;2022-08-06T13:38:46;22.80;45.50
53748;DHT22;39655;53.210;5.768;2022-08-06T13:41:26;22.40;45.00
53748;DHT22;39655;53.210;5.768;2022-08-06T13:43:52;22.10;47.30
53748;DHT22;39655;53.210;5.768;2022-08-06T13:46:19;22.20;46.90
53748;DHT22;39655;53.210;5.768;2022-08-06T13:48:49;22.00;46.80
53748;DHT22;39655;53.210;5.768;2022-08-06T13:51:18;22.00;47.70
53748;DHT22;39655;53.210;5.768;2022-08-06T13:53:44;22.50;45.70
53748;DHT22;39655;53.210;5.768;2022-08-06T13:56:10;22.60;46.80
53748;DHT22;39655;53.210;5.768;2022-08-06T13:58:35;23.00;44.70
53748;DHT22;39655;53.210;5.768;2022-08-06T14:01:01;23.50;45.20
53748;DHT22;39655;53.210;5.768;2022-08-06T14:03:27;23.40;43.90
53748;DHT22;39655;53.210;5.768;2022-08-06T14:05:53;23.20;45.60
53748;DHT22;39655;53.210;5.768;2022-08-06T14:08:19;23.50;45.40
53748;DHT22;39655;53.210;5.768;2022-08-06T14:10:45;23.70;45.30
53748;DHT22;39655;53.210;5.768;2022-08-06T14:13:11;24.00;46.00
53748;DHT22;39655;53.210;5.768;2022-08-06T14:15:47;24.00;42.90
53748;DHT22;39655;53.210;5.768;2022-08-06T14:18:14;24.30;43.60
53748;DHT22;39655;53.210;5.768;2022-08-06T14:20:40;24.10;43.50
53748;DHT22;39655;53.210;5.768;2022-08-06T14:23:13;23.60;45.00
53748;DHT22;39655;53.210;5.768;2022-08-06T14:25:39;23.10;45.90
53748;DHT22;39655;53.210;5.768;2022-08-06T14:28:06;23.60;46.40
53748;DHT22;39655;53.210;5.768;2022-08-06T14:30:32;23.90;43.00
53748;DHT22;39655;53.210;5.768;2022-08-06T14:32:59;24.10;42.30
53748;DHT22;39655;53.210;5.768;2022-08-06T14:35:26;24.60;39.50
53748;DHT22;39655;53.210;5.768;2022-08-06T14:37:55;24.70;39.00
53748;DHT22;39655;53.210;5.768;2022-08-06T14:40:21;24.60;38.90
53748;DHT22;39655;53.210;5.768;2022-08-06T14:43:06;24.60;40.70
53748;DHT22;39655;53.210;5.768;2022-08-06T14:45:51;25.20;42.00
53748;DHT22;39655;53.210;5.768;2022-08-06T14:48:16;25.30;41.70
53748;DHT22;39655;53.210;5.768;2022-08-06T14:50:43;25.00;41.70
53748;DHT22;39655;53.210;5.768;2022-08-06T14:53:08;25.00;40.70
53748;DHT22;39655;53.210;5.768;2022-08-06T14:55:34;25.20;40.10
53748;DHT22;39655;53.210;5.768;2022-08-06T14:58:00;25.10;39.50
53748;DHT22;39655;53.210;5.768;2022-08-06T15:00:26;25.10;41.60
53748;DHT22;39655;53.210;5.768;2022-08-06T15:02:52;25.30;41.50
53748;DHT22;39655;53.210;5.768;2022-08-06T15:05:17;25.30;40.90
53748;DHT22;39655;53.210;5.768;2022-08-06T15:07:43;25.10;41.10
53748;DHT22;39655;53.210;5.768;2022-08-06T15:10:10;25.20;41.50
53748;DHT22;39655;53.210;5.768;2022-08-06T15:12:36;25.30;40.50
53748;DHT22;39655;53.210;5.768;2022-08-06T15:15:05;25.60;39.80
53748;DHT22;39655;53.210;5.768;2022-08-06T15:17:32;25.40;40.00
53748;DHT22;39655;53.210;5.768;2022-08-06T15:19:57;25.50;39.20
53748;DHT22;39655;53.210;5.768;2022-08-06T15:22:24;25.70;37.60
53748;DHT22;39655;53.210;5.768;2022-08-06T15:24:50;26.00;36.30
53748;DHT22;39655;53.210;5.768;2022-08-06T15:27:15;26.20;37.50
53748;DHT22;39655;53.210;5.768;2022-08-06T15:29:47;26.00;36.50
53748;DHT22;39655;53.210;5.768;2022-08-06T15:32:13;26.00;36.70
53748;DHT22;39655;53.210;5.768;2022-08-06T15:34:38;25.80;38.00
53748;DHT22;39655;53.210;5.768;2022-08-06T15:37:04;25.40;39.00
53748;DHT22;39655;53.210;5.768;2022-08-06T15:39:34;25.70;38.60
53748;DHT22;39655;53.210;5.768;2022-08-06T15:42:00;25.80;36.90
53748;DHT22;39655;53.210;5.768;2022-08-06T15:44:26;25.50;36.70
53748;DHT22;39655;53.210;5.768;2022-08-06T15:46:52;25.60;36.50
53748;DHT22;39655;53.210;5.768;2022-08-06T15:49:18;25.70;35.60
53748;DHT22;39655;53.210;5.768;2022-08-06T15:51:43;26.00;36.10
53748;DHT22;39655;53.210;5.768;2022-08-06T15:54:10;26.20;36.90
53748;DHT22;39655;53.210;5.768;2022-08-06T15:56:35;26.30;36.40
53748;DHT22;39655;53.210;5.768;2022-08-06T15:59:01;26.30;35.40
53748;DHT22;39655;53.210;5.768;2022-08-06T16:01:27;26.20;36.30
53748;DHT22;39655;53.210;5.768;2022-08-06T16:03:53;26.00;36.60
53748;DHT22;39655;53.210;5.768;2022-08-06T16:06:18;26.20;36.50
53748;DHT22;39655;53.210;5.768;2022-08-06T16:08:44;26.00;36.00
53748;DHT22;39655;53.210;5.768;2022-08-06T16:11:11;26.10;35.70
53748;DHT22;39655;53.210;5.768;2022-08-06T16:13:37;26.30;35.80
53748;DHT22;39655;53.210;5.768;2022-08-06T16:16:03;26.60;35.60
53748;DHT22;39655;53.210;5.768;2022-08-06T16:18:30;26.50;36.00
53748;DHT22;39655;53.210;5.768;2022-08-06T16:20:59;26.50;35.80
53748;DHT22;39655;53.210;5.768;2022-08-06T16:23:25;26.50;34.70
53748;DHT22;39655;53.210;5.768;2022-08-06T16:25:51;26.80;35.10
53748;DHT22;39655;53.210;5.768;2022-08-06T16:28:16;26.80;33.90
53748;DHT22;39655;53.210;5.768;2022-08-06T16:30:42;26.60;34.60
53748;DHT22;39655;53.210;5.768;2022-08-06T16:33:08;26.70;34.30
53748;DHT22;39655;53.210;5.768;2022-08-06T16:35:33;26.50;33.80
53748;DHT22;39655;53.210;5.768;2022-08-06T16:38:00;26.50;35.20
53748;DHT22;39655;53.210;5.768;2022-08-06T16:40:26;26.40;36.00
53748;DHT22;39655;53.210;5.768;2022-08-06T16:42:52;26.20;35.70
53748;DHT22;39655;53.210;5.768;2022-08-06T16:45:19;26.30;35.30
53748;DHT22;39655;53.210;5.768;2022-08-06T16:47:45;26.20;35.20
53748;DHT22;39655;53.210;5.768;2022-08-06T16:50:11;26.40;36.10
53748;DHT22;39655;53.210;5.768;2022-08-06T16:52:40;26.50;35.50
53748;DHT22;39655;53.210;5.768;2022-08-06T16:55:07;26.60;36.50
53748;DHT22;39655;53.210;5.768;2022-08-06T16:57:32;26.90;36.40
53748;DHT22;39655;53.210;5.768;2022-08-06T16:59:58;27.00;34.90
53748;DHT22;39655;53.210;5.768;2022-08-06T17:02:24;26.70;36.00
53748;DHT22;39655;53.210;5.768;2022-08-06T17:05:02;27.30;35.00
53748;DHT22;39655;53.210;5.768;2022-08-06T17:07:28;27.60;35.40
53748;DHT22;39655;53.210;5.768;2022-08-06T17:09:54;27.50;34.20